Time;durP1;ratioP1;P1;durP2;ratioP2;P2;SDS_P1;SDS_P2;PMS_P1;PMS_P2;Temp;Humidity;BMP_temperature;BMP_pressure;BME280_temperature;BME280_humidity;BME280_pressure;Samples;Min_cycle;Max_cycle;Signal;HPM_P1;HPM_P2
2022/12/07 00:01:32;;;;;;;35.58;22.58;;;;;;;1.90;100.00;153019.31;5049034;28;20045;-75
2022/12/07 00:04:04;;;;;;;36.78;24.35;;;;;;;1.82;100.00;153000.19;5016108;28;20469;-76
2022/12/07 00:06:32;;;;;;;41.70;24.10;;;;;;;1.90;100.00;153019.31;5023326;28;20103;-76
2022/12/07 00:08:57;;;;;;;43.53;25.15;;;;;;;1.89;100.00;153018.06;5025434;28;20033;-76
2022/12/07 00:11:23;;;;;;;39.03;25.75;;;;;;;2.02;100.00;153048.69;5022582;28;20079;-76
2022/12/07 00:13:57;;;;;;;39.42;25.83;;;;;;;1.98;100.00;153038.44;5017117;28;20037;-76
2022/12/07 00:16:25;;;;;;;41.38;25.52;;;;;;;2.04;100.00;153053.78;5029422;28;20037;-76
2022/12/07 00:18:52;;;;;;;38.25;25.20;;;;;;;2.08;100.00;153064.00;5047172;28;20047;-76
2022/12/07 00:21:20;;;;;;;38.47;24.13;;;;;;;2.07;100.00;153062.72;5037550;28;20029;-76
2022/12/07 00:23:50;;;;;;;38.97;24.67;;;;;;;2.06;100.00;153058.88;5040002;28;20076;-76
2022/12/07 00:26:24;;;;;;;34.40;23.90;;;;;;;2.08;100.00;153065.25;5034572;28;20117;-76
2022/12/07 00:28:55;;;;;;;36.47;24.00;;;;;;;2.02;100.00;153049.97;5016725;28;20032;-76
2022/12/07 00:31:23;;;;;;;34.95;23.10;;;;;;;2.06;100.00;153058.88;5027275;28;21085;-76
2022/12/07 00:33:49;;;;;;;38.45;23.48;;;;;;;1.95;100.00;153032.09;5033173;28;20206;-76
2022/12/07 00:36:18;;;;;;;37.30;22.95;;;;;;;1.97;100.00;153037.19;5059911;28;20514;-76
2022/12/07 00:38:43;;;;;;;37.35;22.02;;;;;;;1.89;100.00;153016.78;5028899;28;20064;-76
2022/12/07 00:41:35;;;;;;;38.97;21.38;;;;;;;1.69;100.00;152968.31;5027495;28;20071;-76
2022/12/07 00:44:01;;;;;;;37.00;19.77;;;;;;;1.78;100.00;152990.00;5045797;28;20040;-76
2022/12/07 00:46:27;;;;;;;44.17;21.98;;;;;;;1.72;100.00;152975.97;5024242;28;20079;-76
2022/12/07 00:48:53;;;;;;;34.08;20.27;;;;;;;1.77;100.00;152987.44;5040948;28;20040;-76
2022/12/07 00:51:22;;;;;;;31.80;19.45;;;;;;;1.82;100.00;152998.94;5037602;28;20093;-76
2022/12/07 00:53:48;;;;;;;33.83;19.75;;;;;;;1.75;100.00;152983.66;5040305;28;20474;-76
2022/12/07 00:56:20;;;;;;;32.42;19.48;;;;;;;1.87;100.00;153011.69;5036498;28;20044;-76
2022/12/07 00:58:57;;;;;;;29.45;18.88;;;;;;;1.97;100.00;153037.19;5057572;28;20036;-76
2022/12/07 01:01:25;;;;;;;34.50;20.25;;;;;;;1.89;100.00;153016.78;5054929;28;20122;-76
2022/12/07 01:03:51;;;;;;;32.90;18.98;;;;;;;1.99;100.00;153042.28;5055939;28;20056;-77
2022/12/07 01:06:18;;;;;;;32.78;19.20;;;;;;;2.01;100.00;153047.38;5032143;28;20040;-76
2022/12/07 01:08:44;;;;;;;30.40;18.52;;;;;;;2.07;100.00;153061.41;5014080;28;20470;-76
2022/12/07 01:11:14;;;;;;;30.88;18.33;;;;;;;2.16;100.00;153084.38;5029381;28;20127;-76
2022/12/07 01:13:40;;;;;;;26.98;16.35;;;;;;;2.13;100.00;153076.75;5038122;28;20040;-76
2022/12/07 01:16:07;;;;;;;34.17;18.45;;;;;;;2.09;100.00;153066.50;5053439;28;20035;-76
2022/12/07 01:18:35;;;;;;;31.30;17.95;;;;;;;2.08;100.00;153065.25;5035826;28;20037;-76
2022/12/07 01:21:05;;;;;;;29.17;17.52;;;;;;;2.16;100.00;153084.38;5024363;28;20041;-76
2022/12/07 01:23:31;;;;;;;30.40;17.52;;;;;;;2.08;100.00;153064.00;5025274;28;20045;-76
2022/12/07 01:25:59;;;;;;;30.80;18.23;;;;;;;2.05;100.00;153057.59;5016104;28;20064;-76
2022/12/07 01:28:25;;;;;;;29.23;16.77;;;;;;;2.12;100.00;153075.44;5030150;28;20071;-76
2022/12/07 01:31:06;;;;;;;29.48;17.10;;;;;;;2.13;100.00;153078.03;5018130;28;20040;-76
2022/12/07 01:33:34;;;;;;;31.48;16.42;;;;;;;2.16;100.00;153084.38;5043328;28;20043;-75
2022/12/07 01:36:04;;;;;;;31.58;16.85;;;;;;;2.01;100.00;153047.38;5032072;28;20136;-76
2022/12/07 01:38:31;;;;;;;28.83;16.27;;;;;;;2.12;100.00;153075.44;5035933;28;20383;-76
2022/12/07 01:40:57;;;;;;;29.25;14.88;;;;;;;2.15;100.00;153081.84;5020627;28;20032;-76
2022/12/07 01:43:25;;;;;;;28.65;14.68;;;;;;;2.05;100.00;153057.59;5034696;28;20036;-76
2022/12/07 01:45:51;;;;;;;27.67;15.50;;;;;;;2.08;100.00;153065.25;5049799;28;20033;-76
2022/12/07 01:48:21;;;;;;;27.60;15.35;;;;;;;2.08;100.00;153065.25;5053292;28;20551;-76
2022/12/07 01:50:50;;;;;;;25.00;15.52;;;;;;;2.10;100.00;153070.34;5023618;28;20035;-76
2022/12/07 01:53:17;;;;;;;25.17;16.02;;;;;;;2.25;100.00;153107.34;5037588;28;20086;-76
2022/12/07 01:55:45;;;;;;;30.30;14.93;;;;;;;1.95;100.00;153033.34;5054255;28;20028;-76
2022/12/07 01:58:12;;;;;;;28.95;15.10;;;;;;;1.82;100.00;152998.94;5042947;28;20115;-76
2022/12/07 02:00:38;;;;;;;25.42;15.15;;;;;;;1.75;100.00;152983.66;5037212;28;20045;-76
2022/12/07 02:03:09;;;;;;;27.20;15.38;;;;;;;1.74;100.00;152981.06;5048896;28;20048;-76
2022/12/07 02:05:38;;;;;;;25.95;15.05;;;;;;;1.65;100.00;152956.84;5028196;28;20086;-76
2022/12/07 02:08:04;;;;;;;27.33;15.02;;;;;;;1.68;100.00;152964.53;5026295;28;20036;-76
2022/12/07 02:10:31;;;;;;;31.05;14.88;;;;;;;1.66;100.00;152959.44;5057266;28;20493;-76
2022/12/07 02:13:08;;;;;;;36.25;16.00;;;;;;;1.81;100.00;152996.38;5036546;28;20061;-75
2022/12/07 02:15:45;;;;;;;23.58;14.93;;;;;;;1.86;100.00;153010.38;5051269;28;20026;-76
2022/12/07 02:18:17;;;;;;;24.42;14.18;;;;;;;1.91;100.00;153023.16;5036480;28;20127;-76
2022/12/07 02:20:49;;;;;;;26.77;14.15;;;;;;;1.91;100.00;153021.91;5033437;28;20025;-76
2022/12/07 02:23:38;;;;;;;30.98;13.52;;;;;;;1.83;100.00;153002.78;5030910;28;20115;-76
2022/12/07 02:26:37;;;;;;;22.90;12.88;;;;;;;1.53;100.00;152927.53;5028748;28;20043;-76
2022/12/07 02:29:20;;;;;;;22.63;12.23;;;;;;;1.45;100.00;152908.41;5045101;28;20155;-76
2022/12/07 02:31:56;;;;;;;24.15;12.20;;;;;;;1.17;100.00;152839.56;5011200;28;20033;-76
2022/12/07 02:34:34;;;;;;;22.30;11.40;;;;;;;1.08;100.00;152815.34;5033799;28;20467;-76
2022/12/07 02:37:07;;;;;;;21.42;12.73;;;;;;;1.04;100.00;152805.16;5038114;28;20176;-76
2022/12/07 02:39:52;;;;;;;24.00;12.20;;;;;;;0.92;100.00;152777.13;5036246;28;20532;-76
2022/12/07 02:42:25;;;;;;;26.45;11.45;;;;;;;0.81;100.00;152747.78;5054926;28;20048;-76
2022/12/07 02:44:51;;;;;;;21.98;10.68;;;;;;;0.73;100.00;152728.66;5048322;28;20029;-76
2022/12/07 02:47:21;;;;;;;18.65;9.93;;;;;;;0.64;100.00;152707.03;5036294;28;20048;-76
2022/12/07 02:49:47;;;;;;;24.60;9.88;;;;;;;0.67;100.00;152713.41;5071390;28;20304;-76
2022/12/07 02:52:13;;;;;;;19.00;10.32;;;;;;;0.72;100.00;152726.16;5049340;28;20113;-76
2022/12/07 02:54:38;;;;;;;25.45;9.98;;;;;;;0.71;100.00;152723.56;5055047;28;20033;-76
2022/12/07 02:57:30;;;;;;;22.25;9.60;;;;;;;0.71;100.00;152723.56;5037211;28;20037;-76
2022/12/07 03:00:01;;;;;;;19.70;9.63;;;;;;;0.67;100.00;152714.66;5044784;28;20108;-76
2022/12/07 03:02:48;;;;;;;21.75;9.55;;;;;;;0.71;100.00;152724.84;5048049;28;20033;-76
2022/12/07 03:05:20;;;;;;;17.67;8.98;;;;;;;0.61;100.00;152698.13;5036026;28;20048;-76
2022/12/07 03:08:03;;;;;;;19.52;8.98;;;;;;;0.64;100.00;152707.03;5017287;28;20029;-76
2022/12/07 03:10:37;;;;;;;18.48;7.63;;;;;;;0.59;100.00;152694.28;5012957;28;20137;-76
2022/12/07 03:13:17;;;;;;;13.13;7.00;;;;;;;0.42;100.00;152650.97;5050291;28;20090;-76
2022/12/07 03:15:53;;;;;;;13.88;7.43;;;;;;;0.39;100.00;152645.84;5045245;28;20089;-76
2022/12/07 03:18:22;;;;;;;16.38;7.60;;;;;;;0.41;100.00;152648.41;5047393;28;20126;-76
2022/12/07 03:20:53;;;;;;;15.10;7.50;;;;;;;0.34;100.00;152633.13;5030557;28;20044;-76
2022/12/07 03:23:20;;;;;;;12.73;7.00;;;;;;;0.30;100.00;152621.66;5032181;28;20577;-76
2022/12/07 03:25:49;;;;;;;17.63;7.43;;;;;;;0.17;100.00;152591.09;5034881;28;20052;-76
2022/12/07 03:28:19;;;;;;;15.15;6.68;;;;;;;0.19;100.00;152594.94;5046898;28;20029;-76
2022/12/07 03:31:00;;;;;;;11.85;6.38;;;;;;;0.31;100.00;152624.22;5030556;28;20450;-75
2022/12/07 03:33:39;;;;;;;15.13;6.13;;;;;;;0.31;100.00;152624.22;5028042;28;20037;-76
2022/12/07 03:36:12;;;;;;;16.55;6.68;;;;;;;0.24;100.00;152606.38;5020343;28;20049;-76
2022/12/07 03:38:47;;;;;;;9.65;5.05;;;;;;;0.30;100.00;152622.94;5048125;28;20509;-76
2022/12/07 03:41:22;;;;;;;13.05;5.07;;;;;;;0.33;100.00;152630.56;5040257;28;20033;-77
2022/12/07 03:43:48;;;;;;;11.75;4.95;;;;;;;0.23;100.00;152605.13;5031565;28;20060;-76
2022/12/07 03:46:33;;;;;;;13.52;5.22;;;;;;;0.04;100.00;152558.00;5052652;28;20036;-76
2022/12/07 03:49:13;;;;;;;13.57;4.90;;;;;;;-0.03;100.00;152540.16;5030532;28;20064;-76
2022/12/07 03:51:45;;;;;;;13.48;4.90;;;;;;;0.12;100.00;152577.09;5036100;28;20059;-76
2022/12/07 03:54:22;;;;;;;10.27;5.10;;;;;;;0.12;100.00;152578.34;5045524;28;20071;-76
2022/12/07 03:56:49;;;;;;;11.32;5.00;;;;;;;0.09;100.00;152570.69;5055599;28;20028;-76
2022/12/07 03:59:16;;;;;;;14.27;4.78;;;;;;;0.01;100.00;152549.06;5032178;28;20037;-76
2022/12/07 04:01:44;;;;;;;10.68;5.13;;;;;;;0.00;100.00;152547.81;5042379;28;20787;-76
2022/12/07 04:04:10;;;;;;;20.48;4.47;;;;;;;0.25;100.00;152608.94;5054970;28;20036;-76
2022/12/07 04:06:36;;;;;;;13.52;4.65;;;;;;;0.16;100.00;152588.53;5041398;28;20525;-76
2022/12/07 04:09:02;;;;;;;8.80;3.95;;;;;;;0.05;100.00;152559.25;5027286;28;20102;-76
2022/12/07 04:11:28;;;;;;;11.55;3.95;;;;;;;-0.15;100.00;152509.56;5049154;28;20141;-76
2022/12/07 04:16:37;;;;;;;10.32;3.22;;;;;;;-0.20;100.00;152498.13;5061202;28;20036;-76
2022/12/07 04:19:03;;;;;;;9.48;4.75;;;;;;;-0.29;100.00;152476.47;5032508;28;20448;-77
2022/12/07 04:21:29;;;;;;;11.13;3.58;;;;;;;-0.27;100.00;152480.28;5047330;28;20041;-76
2022/12/07 04:23:54;;;;;;;10.57;3.58;;;;;;;-0.11;100.00;152519.78;5033300;28;20529;-76
2022/12/07 04:26:20;;;;;;;8.38;3.17;;;;;;;-0.18;100.00;152501.94;5039994;28;20131;-76
2022/12/07 04:28:46;;;;;;;9.35;3.30;;;;;;;-0.32;100.00;152468.84;5033769;28;20028;-76
2022/12/07 04:31:11;;;;;;;8.20;3.83;;;;;;;-0.23;100.00;152490.47;5016101;28;20045;-76
2022/12/07 04:33:37;;;;;;;8.63;3.53;;;;;;;-0.25;100.00;152485.38;5022711;28;20040;-74
2022/12/07 04:36:03;;;;;;;6.80;3.00;;;;;;;-0.33;100.00;152465.03;5033893;28;20055;-76
2022/12/07 04:38:29;;;;;;;14.45;3.53;;;;;;;-0.25;100.00;152485.38;5034917;28;20039;-76
2022/12/07 04:40:54;;;;;;;6.07;3.85;;;;;;;-0.28;100.00;152477.75;5031680;28;20041;-76
2022/12/07 04:43:20;;;;;;;9.05;3.03;;;;;;;-0.42;100.00;152444.63;5046702;28;20033;-76
2022/12/07 04:45:50;;;;;;;13.65;3.63;;;;;;;-0.31;100.00;152471.38;5035367;28;20402;-77
2022/12/07 04:48:16;;;;;;;11.02;3.10;;;;;;;-0.36;100.00;152457.38;5048710;28;20068;-76
2022/12/07 04:50:41;;;;;;;12.00;3.88;;;;;;;-0.13;100.00;152514.66;5031524;28;20441;-76
2022/12/07 04:53:07;;;;;;;9.27;3.22;;;;;;;-0.23;100.00;152490.47;5019301;28;20060;-76
2022/12/07 04:55:32;;;;;;;7.97;3.40;;;;;;;-0.32;100.00;152467.53;5056204;28;20418;-76
2022/12/07 04:57:58;;;;;;;9.43;3.28;;;;;;;-0.35;100.00;152459.94;5026278;28;20047;-76
2022/12/07 05:00:24;;;;;;;7.55;3.30;;;;;;;-0.30;100.00;152473.94;5039964;28;20488;-76
2022/12/07 05:02:49;;;;;;;12.23;3.58;;;;;;;-0.33;100.00;152465.03;5052820;28;20044;-76
2022/12/07 05:05:15;;;;;;;6.68;3.42;;;;;;;-0.43;100.00;152442.09;5023610;28;20390;-76
2022/12/07 05:07:40;;;;;;;12.65;3.53;;;;;;;-0.47;100.00;152430.63;5053532;28;20067;-76
2022/12/07 05:10:06;;;;;;;11.55;3.53;;;;;;;-0.49;100.00;152426.84;5055351;28;20616;-76
2022/12/07 05:12:32;;;;;;;6.28;3.50;;;;;;;-0.47;100.00;152431.91;5041035;28;20039;-76
2022/12/07 05:14:58;;;;;;;6.03;3.38;;;;;;;-0.30;100.00;152472.63;5034864;28;20095;-76
2022/12/07 05:17:23;;;;;;;9.48;3.75;;;;;;;-0.48;100.00;152429.34;5028855;28;20437;-76
2022/12/07 05:19:49;;;;;;;8.48;3.30;;;;;;;-0.59;100.00;152401.34;5052069;28;20167;-77
2022/12/07 05:22:15;;;;;;;6.22;3.17;;;;;;;-0.47;100.00;152431.91;5028932;28;20036;-76
2022/12/07 05:24:40;;;;;;;11.73;3.42;;;;;;;-0.44;100.00;152438.28;5028639;28;20048;-76
2022/12/07 05:27:06;;;;;;;8.25;3.28;;;;;;;-0.48;100.00;152428.09;5035764;28;20045;-76
2022/12/07 05:29:32;;;;;;;10.75;3.63;;;;;;;-0.55;100.00;152410.25;5034920;28;20056;-76
2022/12/07 05:31:57;;;;;;;10.45;3.70;;;;;;;-0.66;100.00;152384.81;5037375;28;20043;-76
2022/12/07 05:34:23;;;;;;;8.52;2.92;;;;;;;-0.61;100.00;152396.25;5047929;28;20106;-76
2022/12/07 05:36:51;;;;;;;7.13;3.88;;;;;;;-0.61;100.00;152397.53;5040109;28;20032;-76
2022/12/07 05:39:17;;;;;;;9.02;3.85;;;;;;;-0.61;100.00;152397.53;5012495;28;20098;-76
2022/12/07 05:44:27;;;;;;;13.00;4.45;;;;;;;-0.64;100.00;152388.59;5062877;28;20039;-76
2022/12/07 05:46:54;;;;;;;11.10;3.75;;;;;;;-0.67;100.00;152382.25;5048765;28;20033;-75
2022/12/07 05:49:19;;;;;;;9.45;3.60;;;;;;;-0.72;100.00;152368.25;5036500;28;20040;-76
2022/12/07 05:51:45;;;;;;;16.45;3.78;;;;;;;-0.85;100.00;152336.41;5031761;28;20402;-76
2022/12/07 05:54:11;;;;;;;7.57;3.67;;;;;;;-0.90;100.00;152323.72;5046193;28;20658;-76
2022/12/07 05:56:36;;;;;;;11.85;3.90;;;;;;;-0.96;100.00;152309.72;5027678;28;20127;-76
2022/12/07 06:01:46;;;;;;;8.07;3.53;;;;;;;-1.07;100.00;152281.72;5034689;28;20036;-75
2022/12/07 06:04:12;;;;;;;9.85;3.42;;;;;;;-1.11;100.00;152271.50;5041185;28;20094;-76
2022/12/07 06:06:38;;;;;;;7.45;3.90;;;;;;;-1.12;100.00;152270.25;5022232;28;20109;-75
2022/12/07 06:09:04;;;;;;;12.55;4.05;;;;;;;-1.18;100.00;152255.00;5038159;28;20444;-76
2022/12/07 06:14:14;;;;;;;10.50;3.95;;;;;;;-1.24;100.00;152241.00;5045512;28;20075;-77
2022/12/07 06:16:40;;;;;;;13.07;4.32;;;;;;;-1.27;100.00;152233.34;5016694;28;20405;-77
2022/12/07 06:19:06;;;;;;;12.02;3.83;;;;;;;-1.31;100.00;152223.19;5027838;28;20055;-76
2022/12/07 06:21:32;;;;;;;8.73;3.60;;;;;;;-1.32;100.00;152219.34;5055461;28;20799;-75
2022/12/07 06:23:57;;;;;;;11.82;4.13;;;;;;;-1.38;100.00;152206.63;5019402;28;20033;-76
2022/12/07 06:26:23;;;;;;;6.97;3.83;;;;;;;-1.40;100.00;152200.28;5033494;28;20044;-75
2022/12/07 06:28:48;;;;;;;6.28;3.42;;;;;;;-1.44;100.00;152190.09;5019668;28;20040;-76
2022/12/07 06:31:14;;;;;;;6.45;3.65;;;;;;;-1.37;100.00;152209.19;5036174;28;20036;-76
2022/12/07 06:33:41;;;;;;;9.18;4.10;;;;;;;-1.38;100.00;152206.63;5057839;28;20501;-76
2022/12/07 06:36:07;;;;;;;10.35;4.10;;;;;;;-1.22;100.00;152246.09;5058558;28;20043;-76
2022/12/07 06:38:32;;;;;;;6.38;3.42;;;;;;;-1.25;100.00;152238.44;5048753;28;20040;-76
2022/12/07 06:40:58;;;;;;;7.55;3.55;;;;;;;-1.10;100.00;152274.06;5048282;28;20044;-76
2022/12/07 06:43:24;;;;;;;10.45;3.33;;;;;;;-1.07;100.00;152283.00;5058327;28;20056;-76
2022/12/07 06:45:50;;;;;;;10.02;3.15;;;;;;;-0.98;100.00;152305.91;5050566;28;20397;-76
2022/12/07 06:48:16;;;;;;;7.88;3.00;;;;;;;-0.71;100.00;152372.09;5037260;28;20041;-76
2022/12/07 06:50:45;;;;;;;12.45;4.05;;;;;;;-0.75;100.00;152361.91;5050102;28;20121;-76
2022/12/07 06:53:10;;;;;;;6.90;3.00;;;;;;;-0.61;100.00;152396.25;5039107;28;20122;-76
2022/12/07 06:55:36;;;;;;;7.78;3.00;;;;;;;-0.37;100.00;152456.09;5048490;28;20036;-76
2022/12/07 06:58:02;;;;;;;10.35;3.05;;;;;;;-0.46;100.00;152434.44;5035539;28;20044;-75
2022/12/07 07:00:28;;;;;;;9.73;2.83;;;;;;;-0.47;100.00;152430.63;5034340;28;20072;-76
2022/12/07 07:02:55;;;;;;;8.52;2.60;;;;;;;-0.54;100.00;152414.09;5055205;28;20044;-76
2022/12/07 07:05:23;;;;;;;7.53;2.58;;;;;;;-0.62;100.00;152393.75;5025341;28;20036;-76
2022/12/07 07:07:50;;;;;;;8.25;2.70;;;;;;;-0.64;100.00;152389.91;5040048;28;20497;-76
2022/12/07 07:10:16;;;;;;;9.13;2.65;;;;;;;-0.66;100.00;152384.81;5031731;28;20498;-76
2022/12/07 07:12:41;;;;;;;6.95;2.65;;;;;;;-0.73;100.00;152367.00;5051723;28;20028;-76
2022/12/07 07:15:07;;;;;;;6.18;2.28;;;;;;;-0.63;100.00;152392.44;5034699;28;20025;-76
2022/12/07 07:17:33;;;;;;;7.63;2.00;;;;;;;-0.58;100.00;152403.91;5025281;28;20052;-76
2022/12/07 07:19:59;;;;;;;6.03;2.00;;;;;;;-0.37;100.00;152454.84;5022581;28;20041;-76
2022/12/07 07:22:24;;;;;;;9.45;2.80;;;;;;;-0.29;100.00;152476.47;5019210;28;20047;-76
2022/12/07 07:24:50;;;;;;;8.63;2.20;;;;;;;-0.38;100.00;152453.53;5033913;28;20120;-76
2022/12/07 07:27:16;;;;;;;4.88;1.92;;;;;;;-0.36;100.00;152458.63;5051587;28;20044;-76
2022/12/07 07:29:41;;;;;;;7.88;2.08;;;;;;;-0.26;100.00;152484.13;5035985;28;20044;-75
2022/12/07 07:32:07;;;;;;;6.72;2.35;;;;;;;-0.12;100.00;152517.22;5046035;28;20761;-76
2022/12/07 07:34:33;;;;;;;7.95;2.53;;;;;;;-0.26;100.00;152484.13;5061300;28;20066;-76
2022/12/07 07:36:59;;;;;;;7.57;2.03;;;;;;;-0.27;100.00;152480.28;5055448;28;20040;-76
2022/12/07 07:39:24;;;;;;;3.78;2.03;;;;;;;-0.20;100.00;152499.38;5048603;28;20117;-75
2022/12/07 07:41:50;;;;;;;10.57;2.28;;;;;;;-0.06;100.00;152533.78;5053480;28;20055;-75
2022/12/07 07:44:23;;;;;;;4.95;1.83;;;;;;;-0.05;100.00;152536.31;5058309;28;20037;-77
2022/12/07 07:46:49;;;;;;;6.45;2.22;;;;;;;-0.07;100.00;152529.97;5040480;28;20033;-76
2022/12/07 07:49:14;;;;;;;10.90;2.45;;;;;;;-0.25;100.00;152485.38;5045512;28;20692;-75
2022/12/07 07:51:40;;;;;;;9.82;2.10;;;;;;;-0.23;100.00;152490.47;5040599;28;20041;-76
2022/12/07 07:54:06;;;;;;;6.90;2.00;;;;;;;-0.25;100.00;152485.38;5044190;28;20041;-76
2022/12/07 07:56:31;;;;;;;9.25;2.22;;;;;;;-0.18;100.00;152503.22;5032520;28;20074;-76
2022/12/07 07:58:57;;;;;;;6.38;1.70;;;;;;;-0.11;100.00;152521.03;5034361;28;20065;-75
2022/12/07 08:01:22;;;;;;;9.00;2.22;;;;;;;-0.20;100.00;152498.13;5054874;28;20045;-76
2022/12/07 08:03:49;;;;;;;5.63;2.05;;;;;;;-0.23;100.00;152491.78;5050952;28;20470;-77
2022/12/07 08:06:14;;;;;;;5.65;2.05;;;;;;;-0.20;100.00;152498.13;5057921;28;20044;-76
2022/12/07 08:08:40;;;;;;;3.88;2.05;;;;;;;-0.22;100.00;152494.28;5057407;28;20036;-76
2022/12/07 08:11:08;;;;;;;6.72;1.95;;;;;;;-0.21;100.00;152496.88;5054192;28;20052;-75
2022/12/07 08:13:34;;;;;;;4.85;1.92;;;;;;;-0.20;100.00;152498.13;5056661;28;20178;-76
2022/12/07 08:16:11;;;;;;;4.40;1.90;;;;;;;-0.10;100.00;152522.31;5039795;28;20623;-77
2022/12/07 08:18:39;;;;;;;5.25;2.20;;;;;;;-0.03;100.00;152541.41;5037533;28;20029;-76
2022/12/07 08:21:06;;;;;;;9.23;2.25;;;;;;;0.17;100.00;152591.09;5040203;28;20044;-76
2022/12/07 08:23:33;;;;;;;2.92;1.60;;;;;;;0.09;100.00;152569.44;5030767;28;20124;-75
2022/12/07 08:26:04;;;;;;;8.65;2.08;;;;;;;0.12;100.00;152577.09;5036577;28;20387;-76
2022/12/07 08:28:30;;;;;;;7.97;2.25;;;;;;;0.21;100.00;152600.03;5054298;28;21303;-76
2022/12/07 08:31:00;;;;;;;11.25;2.08;;;;;;;0.17;100.00;152589.78;5034427;28;20490;-75
2022/12/07 08:33:26;;;;;;;4.35;1.98;;;;;;;0.32;100.00;152628.03;5025546;28;20045;-76
2022/12/07 08:35:51;;;;;;;9.35;1.85;;;;;;;0.50;100.00;152672.59;5045233;28;20040;-77
2022/12/07 08:38:17;;;;;;;11.10;2.40;;;;;;;0.72;100.00;152726.16;5038346;28;20036;-76
2022/12/07 08:40:43;;;;;;;8.35;2.22;;;;;;;0.82;100.00;152751.63;5042961;28;20032;-76
2022/12/07 08:43:09;;;;;;;10.95;2.42;;;;;;;0.76;100.00;152736.34;5020256;28;20047;-77
2022/12/07 08:45:35;;;;;;;6.70;2.03;;;;;;;0.64;100.00;152705.72;5053143;28;20047;-76
2022/12/07 08:48:10;;;;;;;7.32;2.10;;;;;;;0.59;100.00;152694.28;5045451;28;20025;-77
2022/12/07 08:50:37;;;;;;;8.82;2.30;;;;;;;0.62;100.00;152700.63;5034285;28;20107;-76
2022/12/07 08:53:05;;;;;;;4.10;1.70;;;;;;;0.83;100.00;152752.88;5035746;28;20040;-76
2022/12/07 08:55:31;;;;;;;6.88;1.88;;;;;;;0.80;100.00;152745.25;5059496;28;20032;-76
2022/12/07 08:57:58;;;;;;;6.22;2.38;;;;;;;0.76;100.00;152736.34;5035178;28;20062;-76
2022/12/07 09:00:25;;;;;;;6.93;1.92;;;;;;;0.79;100.00;152743.94;5028420;28;20033;-76
2022/12/07 09:02:51;;;;;;;9.70;2.50;;;;;;;0.91;100.00;152774.56;5029032;28;20520;-76
2022/12/07 09:05:17;;;;;;;13.80;2.55;;;;;;;1.14;100.00;152830.63;5045195;28;20036;-76
2022/12/07 09:07:48;;;;;;;10.55;2.47;;;;;;;1.24;100.00;152854.84;5041469;28;20486;-74
2022/12/07 09:10:13;;;;;;;8.80;2.00;;;;;;;1.41;100.00;152898.19;5041481;28;20051;-75
2022/12/07 09:12:39;;;;;;;8.70;2.08;;;;;;;1.55;100.00;152932.63;5024745;28;20036;-76
2022/12/07 09:15:07;;;;;;;9.02;2.22;;;;;;;1.77;100.00;152986.16;5039510;28;20044;-75
2022/12/07 09:17:34;;;;;;;6.00;1.90;;;;;;;1.85;100.00;153007.88;5039500;28;20131;-76
2022/12/07 09:20:00;;;;;;;7.72;2.17;;;;;;;1.87;100.00;153012.97;5046184;28;20107;-76
2022/12/07 09:22:30;;;;;;;8.15;1.98;;;;;;;1.94;100.00;153030.84;5028159;28;20045;-77
2022/12/07 09:25:00;;;;;;;5.68;1.85;;;;;;;2.06;100.00;153058.88;5030513;28;20536;-76
2022/12/07 09:27:26;;;;;;;10.75;2.15;;;;;;;2.04;100.00;153053.78;5039772;28;20036;-75
2022/12/07 09:29:52;;;;;;;7.90;1.88;;;;;;;2.14;100.00;153079.28;5037808;28;20404;-77
2022/12/07 09:32:18;;;;;;;10.35;1.95;;;;;;;2.22;100.00;153099.66;5038236;28;20036;-76
2022/12/07 09:34:44;;;;;;;7.45;1.50;;;;;;;2.31;100.00;153122.66;5034404;28;20401;-76
2022/12/07 09:37:10;;;;;;;7.57;1.70;;;;;;;2.31;100.00;153121.38;5036673;28;20102;-75
2022/12/07 09:39:38;;;;;;;11.75;2.10;;;;;;;2.41;100.00;153145.59;5035822;28;20094;-76
2022/12/07 09:42:05;;;;;;;9.48;1.70;;;;;;;2.37;100.00;153136.69;5030739;28;20127;-76
2022/12/07 09:44:31;;;;;;;8.52;2.10;;;;;;;2.38;100.00;153137.97;5043361;28;20509;-77
2022/12/07 09:46:59;;;;;;;9.70;2.70;;;;;;;2.38;100.00;153137.97;5036450;28;20044;-75
2022/12/07 09:49:29;;;;;;;11.25;2.08;;;;;;;2.42;100.00;153149.44;5026675;28;20040;-75
2022/12/07 09:52:07;;;;;;;7.50;2.40;;;;;;;2.42;100.00;153149.44;5043295;28;20033;-77
2022/12/07 09:54:36;;;;;;;8.60;1.95;;;;;;;2.44;100.00;153153.28;5029118;28;20033;-75
2022/12/07 09:57:03;;;;;;;5.85;1.88;;;;;;;2.42;100.00;153149.44;5048551;28;20243;-76
2022/12/07 09:59:29;;;;;;;8.32;2.08;;;;;;;2.51;100.00;153172.41;5036440;28;20049;-75
2022/12/07 10:01:55;;;;;;;11.43;1.98;;;;;;;2.64;100.00;153204.31;5043775;28;20048;-75
2022/12/07 10:04:23;;;;;;;13.02;2.10;;;;;;;2.69;100.00;153215.78;5038787;28;20037;-76
2022/12/07 10:06:50;;;;;;;7.10;1.63;;;;;;;2.75;100.00;153231.13;5059680;28;20059;-76
2022/12/07 10:09:21;;;;;;;8.60;2.17;;;;;;;2.86;100.00;153257.91;5037544;28;20037;-75
2022/12/07 10:12:08;;;;;;;8.98;1.83;;;;;;;2.88;100.00;153264.31;5048016;28;20131;-75
2022/12/07 10:14:36;;;;;;;5.10;1.50;;;;;;;2.78;100.00;153238.75;5036377;28;20044;-75
2022/12/07 10:17:02;;;;;;;10.57;1.67;;;;;;;2.70;100.00;153218.38;5054010;28;20533;-75
2022/12/07 10:19:33;;;;;;;7.88;1.42;;;;;;;2.70;100.00;153218.38;5059605;28;20036;-76
2022/12/07 10:22:04;;;;;;;4.00;1.40;;;;;;;2.66;100.00;153209.44;5024485;28;20040;-75
2022/12/07 10:24:30;;;;;;;8.20;1.38;;;;;;;2.73;100.00;153227.31;5028880;28;20090;-76
2022/12/07 10:26:56;;;;;;;7.50;1.40;;;;;;;2.70;100.00;153218.38;5037039;28;20029;-75
2022/12/07 10:29:35;;;;;;;5.95;1.35;;;;;;;2.73;100.00;153227.31;5051782;28;20154;-75
2022/12/07 10:32:03;;;;;;;8.70;1.27;;;;;;;2.78;100.00;153238.75;5063995;28;20068;-75
2022/12/07 10:34:35;;;;;;;5.18;0.98;;;;;;;2.77;100.00;153236.25;5045828;28;20517;-74
2022/12/07 10:37:13;;;;;;;4.63;1.00;;;;;;;2.70;100.00;153218.38;5039779;28;20032;-75
2022/12/07 10:39:51;;;;;;;5.43;1.00;;;;;;;2.63;100.00;153201.75;5031504;28;20842;-76
2022/12/07 10:42:29;;;;;;;6.35;1.25;;;;;;;2.73;100.00;153227.31;5060401;28;20029;-75
2022/12/07 10:45:11;;;;;;;6.13;1.17;;;;;;;2.77;100.00;153234.94;5029589;28;20569;-76
2022/12/07 10:47:55;;;;;;;6.05;0.90;;;;;;;2.79;100.00;153240.03;5052778;28;20029;-75
2022/12/07 10:50:49;;;;;;;4.72;1.10;;;;;;;2.79;100.00;153240.03;5067279;28;20105;-76
2022/12/07 10:53:43;;;;;;;6.53;0.90;;;;;;;2.71;100.00;153222.19;5056307;28;20059;-75
2022/12/07 10:56:24;;;;;;;5.28;1.10;;;;;;;2.87;100.00;153261.75;5056733;28;20036;-76
2022/12/07 10:59:10;;;;;;;6.63;1.00;;;;;;;2.94;100.00;153278.34;5061909;28;20055;-76
2022/12/07 11:01:46;;;;;;;7.28;1.10;;;;;;;3.03;100.00;153300.03;5025588;28;20063;-76
2022/12/07 11:04:30;;;;;;;7.60;1.45;;;;;;;3.08;100.00;153314.06;5035706;28;20037;-76
2022/12/07 11:07:15;;;;;;;5.65;1.27;;;;;;;3.11;100.00;153320.47;5018649;28;20052;-76
2022/12/07 11:09:56;;;;;;;6.43;1.15;;;;;;;3.18;100.00;153338.31;5039442;28;20064;-76
2022/12/07 11:12:40;;;;;;;3.55;1.00;;;;;;;3.34;100.00;153377.91;5025564;28;20071;-76
2022/12/07 11:15:15;;;;;;;5.65;1.25;;;;;;;3.26;100.00;153357.50;5058355;28;20041;-76
2022/12/07 11:18:02;;;;;;;7.55;1.27;;;;;;;3.17;100.00;153334.53;5031669;28;20418;-75
2022/12/07 11:20:39;;;;;;;11.05;1.35;;;;;;;3.09;100.00;153315.38;5074527;28;20131;-76
2022/12/07 11:23:18;;;;;;;4.18;1.08;;;;;;;3.13;100.00;153325.56;5065510;28;20489;-75
2022/12/07 11:25:54;;;;;;;6.32;1.05;;;;;;;2.98;100.00;153288.56;5032283;28;20059;-77
2022/12/07 11:28:53;;;;;;;6.93;1.20;;;;;;;2.97;100.00;153284.72;5064546;28;20043;-75
2022/12/07 11:32:06;;;;;;;5.40;1.17;;;;;;;2.99;100.00;153291.09;5047807;28;20043;-76
2022/12/07 11:34:50;;;;;;;8.60;1.20;;;;;;;3.15;100.00;153330.69;4993987;28;20091;-76
2022/12/07 11:37:23;;;;;;;3.83;1.42;;;;;;;3.07;100.00;153310.22;4991694;28;20041;-76
2022/12/07 11:39:56;;;;;;;8.13;1.35;;;;;;;3.00;100.00;153292.41;5016964;28;20048;-75